Item Display Status Inductive CT Sensor

Mooring Depth: 5 m

 

Deployed Sensor

  • Serial Number: 4192
  • NDBC Property Number: 24568
  • Start Date: 1/30/2015 (12:57:28 Z)
  • End Date: 2/26/2016 (16:48:00 Z)
Water Temperature [°C]     6 entries per hour
Showing data from 10/20/2015 (20:00:00 Z) to 10/19/2015 (00:00:01 Z)
Previous Next [ Day | 3-Days | 7-Days ]
First Last
Prev [ Day | 3-Days | 7-Days ] Next
First Last

Start Time:     :
End Time:     :     
Time (in GMT) :00 :50 :40 :30 :20 :10
Previous Next [ Day | 3-Days | 7-Days ]
First Last
Prev [ Day | 3-Days | 7-Days ] Next
First Last


123 => good data
MM => data is determined as missing
-- => data not received/configured
Back to Top Back to Top
10/20/2015 20:00 to 19:10 28.764 28.759 28.759 28.757 28.751 28.750
10/20/2015 19:00 to 18:10 28.744 28.740 28.734 28.731 28.725 28.721
10/20/2015 18:00 to 17:10 28.718 28.713 28.709 28.705 28.702 28.693
10/20/2015 17:00 to 16:10 28.690 28.684 28.677 28.675 28.676 28.679
10/20/2015 16:00 to 15:10 28.679 28.681 28.687 28.688 28.693 28.697
10/20/2015 15:00 to 14:10 28.703 28.707 28.703 28.702 28.701 28.703
10/20/2015 14:00 to 13:10 28.708 28.712 28.712 28.717 28.719 28.727
10/20/2015 13:00 to 12:10 28.734 28.730 28.725 28.723 28.725 28.724
10/20/2015 12:00 to 11:10 28.717 28.713 28.717 28.711 28.715 28.711
10/20/2015 11:00 to 10:10 28.710 28.710 28.708 28.709 28.711 28.714
10/20/2015 10:00 to 9:10 28.718 28.721 28.725 28.729 28.735 28.741
10/20/2015 09:00 to 8:10 28.747 28.758 28.761 28.767 28.770 28.786
10/20/2015 08:00 to 7:10 28.783 28.783 28.777 28.776 28.770 28.770
10/20/2015 07:00 to 6:10 28.784 28.797 28.801 28.810 28.806 28.804
10/20/2015 06:00 to 5:10 28.805 28.802 28.805 28.822 28.859 --
10/20/2015 05:00 to 4:10 28.865 28.850 28.838 28.803 28.810 28.854
10/20/2015 04:00 to 3:10 28.819 28.788 28.776 28.771 28.774 28.781
10/20/2015 03:00 to 2:10 28.783 28.787 28.780 28.787 28.790 28.793
10/20/2015 02:00 to 1:10 28.781 28.782 28.780 28.778 28.785 28.790
10/20/2015 01:00 to 0:10 28.800 28.804 28.815 28.821 28.823 28.824
10/20/2015 00:00 to 23:10 28.830 28.830 28.823 28.806 28.797 28.789
10/19/2015 23:00 to 22:10 28.771 28.767 28.754 28.749 28.741 28.734
10/19/2015 22:00 to 21:10 28.725 28.713 28.715 28.716 28.711 28.709
10/19/2015 21:00 to 20:10 28.703 28.703 28.703 28.698 28.695 28.685
10/19/2015 20:00 to 19:10 28.672 28.663 28.654 28.649 28.643 28.638
10/19/2015 19:00 to 18:10 28.640 28.637 28.632 28.627 28.624 28.621
10/19/2015 18:00 to 17:10 28.615 28.611 28.609 28.605 28.603 28.602
10/19/2015 17:00 to 16:10 28.601 28.600 28.598 28.597 28.596 28.597
10/19/2015 16:00 to 15:10 28.600 28.601 28.600 28.599 28.599 --
10/19/2015 15:00 to 14:10 -- 28.599 28.601 28.603 28.605 28.609
10/19/2015 14:00 to 13:10 28.605 28.605 28.606 28.606 28.609 28.608
10/19/2015 13:00 to 12:10 28.612 28.616 28.615 28.618 28.620 28.621
10/19/2015 12:00 to 11:10 -- 28.627 28.623 28.628 28.629 28.633
10/19/2015 11:00 to 10:10 28.635 28.637 28.638 28.640 28.638 28.640
10/19/2015 10:00 to 9:10 28.642 28.643 28.646 28.644 28.644 28.643
10/19/2015 09:00 to 8:10 28.642 28.638 28.635 28.636 28.639 28.641
10/19/2015 08:00 to 7:10 28.642 28.644 28.650 28.649 28.649 28.649
10/19/2015 07:00 to 6:10 28.652 28.651 28.655 28.658 28.658 28.656
10/19/2015 06:00 to 5:10 28.653 28.652 28.654 28.657 28.660 28.665
10/19/2015 05:00 to 4:10 28.675 28.680 28.681 28.680 28.682 28.688
10/19/2015 04:00 to 3:10 28.702 28.703 28.705 28.700 28.697 28.701
10/19/2015 03:00 to 2:10 28.712 28.720 28.728 28.735 28.741 28.742
10/19/2015 02:00 to 1:10 28.743 28.746 28.748 28.760 28.771 28.777
10/19/2015 01:00 to 0:10 28.781 28.786 28.783 28.799 28.801 28.808

 

 

 

Conductivity [S/m]     6 entries per hour
Showing data from 10/20/2015 (20:00:00 Z) to 10/19/2015 (00:00:01 Z)
Previous Next [ Day | 3-Days | 7-Days ]
First Last
Prev [ Day | 3-Days | 7-Days ] Next
First Last

Start Time:     :
End Time:     :     
Time (in GMT) :00 :50 :40 :30 :20 :10
Previous Next [ Day | 3-Days | 7-Days ]
First Last
Prev [ Day | 3-Days | 7-Days ] Next
First Last


123 => good data
MM => data is determined as missing
-- => data not received/configured
Back to Top Back to Top
10/20/2015 20:00 to 19:10 5.73685 5.73638 5.73638 5.73589 5.73545 5.73515
10/20/2015 19:00 to 18:10 5.73506 5.73462 5.73399 5.73347 5.73303 5.73234
10/20/2015 18:00 to 17:10 5.73253 5.73223 5.73198 5.73130 5.73116 5.73025
10/20/2015 17:00 to 16:10 5.72957 5.72896 5.72841 5.72800 5.72797 5.72830
10/20/2015 16:00 to 15:10 5.72847 5.72902 5.72951 5.72957 5.73025 5.73047
10/20/2015 15:00 to 14:10 5.73108 5.73127 5.73168 5.73171 5.73155 5.73188
10/20/2015 14:00 to 13:10 5.73212 5.73273 5.73298 5.73339 5.73333 5.73391
10/20/2015 13:00 to 12:10 5.73564 5.73512 5.73440 5.73435 5.73454 5.73457
10/20/2015 12:00 to 11:10 5.73399 5.73342 5.73377 5.73347 5.73391 5.73328
10/20/2015 11:00 to 10:10 5.73344 5.73306 5.73306 5.73292 5.73320 5.73391
10/20/2015 10:00 to 9:10 5.73443 5.73485 5.73542 5.73595 5.73600 5.73762
10/20/2015 09:00 to 8:10 5.73818 5.73933 5.74032 5.74085 5.74090 5.74297
10/20/2015 08:00 to 7:10 5.74275 5.74294 5.74247 5.74198 5.74178 5.74176
10/20/2015 07:00 to 6:10 5.74311 5.74423 5.74539 5.74605 5.74583 5.74578
10/20/2015 06:00 to 5:10 5.74575 5.74564 5.74586 5.74845 5.75246 5.75317
10/20/2015 05:00 to 4:10 5.75282 5.75229 5.75030 5.74721 5.74674 5.75141
10/20/2015 04:00 to 3:10 5.74804 5.74432 5.74333 5.74322 5.74369 5.74504
10/20/2015 03:00 to 2:10 5.74509 5.74556 5.74512 5.74608 5.74724 5.74733
10/20/2015 02:00 to 1:10 5.74631 5.74666 5.74636 5.74653 5.74724 5.74890
10/20/2015 01:00 to 0:10 5.75058 5.75061 5.75216 5.75315 5.75337 5.75351
10/20/2015 00:00 to 23:10 5.75508 5.75592 5.75603 5.75481 5.75335 5.75354
10/19/2015 23:00 to 22:10 5.75255 5.75131 5.75001 5.74979 5.74899 5.74830
10/19/2015 22:00 to 21:10 5.74728 5.74587 5.74579 5.74601 5.74579 5.74557
10/19/2015 21:00 to 20:10 5.74460 5.74458 5.74469 5.74380 5.74358 5.74270
10/19/2015 20:00 to 19:10 5.74069 5.74053 5.73904 5.73863 5.73802 5.73744
10/19/2015 19:00 to 18:10 5.73786 5.73758 5.73689 5.73656 5.73618 5.73588
10/19/2015 18:00 to 17:10 5.73546 5.73508 5.73486 5.73414 5.73401 5.73381
10/19/2015 17:00 to 16:10 5.73368 5.73354 5.73335 5.73335 5.73310 5.73335
10/19/2015 16:00 to 15:10 5.73329 5.73362 5.73354 5.73337 5.73315 5.73390
10/19/2015 15:00 to 14:10 5.73370 5.73323 5.73346 5.73390 5.73359 5.73464
10/19/2015 14:00 to 13:10 5.73401 5.73412 5.73403 5.73392 5.73439 5.73439
10/19/2015 13:00 to 12:10 5.73486 5.73527 5.73527 5.73557 5.73588 5.73579
10/19/2015 12:00 to 11:10 5.73621 5.73640 5.73615 5.73651 5.73670 5.73698
10/19/2015 11:00 to 10:10 5.73733 5.73761 5.73766 5.73799 5.73786 5.73799
10/19/2015 10:00 to 9:10 5.73827 5.73822 5.73887 5.73885 5.73910 5.73910
10/19/2015 09:00 to 8:10 5.73868 5.73849 5.73805 5.73786 5.73846 5.73896
10/19/2015 08:00 to 7:10 5.73857 5.73887 5.73978 5.73992 5.73984 5.73989
10/19/2015 07:00 to 6:10 5.74003 5.74025 5.74028 5.74075 5.74102 5.74083
10/19/2015 06:00 to 5:10 5.74064 5.74017 5.74033 5.73992 5.74091 5.74122
10/19/2015 05:00 to 4:10 5.74215 5.74284 5.74312 5.74298 5.74309 5.74378
10/19/2015 04:00 to 3:10 5.74491 5.74585 5.74474 5.74571 5.74521 5.74472
10/19/2015 03:00 to 2:10 5.74659 5.66559 5.66573 5.66981 5.68952 5.70644
10/19/2015 02:00 to 1:10 5.72107 5.69564 5.68663 5.75122 5.68296 5.66959
10/19/2015 01:00 to 0:10 5.66279 5.67365 5.67263 5.69502 5.69079 5.73280

 

 

 

Salinity [psu]     6 entries per hour
Showing data from 10/20/2015 (20:00:00 Z) to 10/19/2015 (00:00:01 Z)
Previous Next [ Day | 3-Days | 7-Days ]
First Last
Prev [ Day | 3-Days | 7-Days ] Next
First Last

Start Time:     :
End Time:     :     
Time (in GMT) :00 :50 :40 :30 :20 :10
Previous Next [ Day | 3-Days | 7-Days ]
First Last
Prev [ Day | 3-Days | 7-Days ] Next
First Last


123 => good data
MM => data is determined as missing
-- => data not received/configured
Back to Top Back to Top
10/20/2015 20:00 to 19:10 35.23 35.23 35.23 35.23 35.23 35.23
10/20/2015 19:00 to 18:10 35.23 35.23 35.23 35.23 35.23 35.23
10/20/2015 18:00 to 17:10 35.23 35.23 35.23 35.23 35.23 35.23
10/20/2015 17:00 to 16:10 35.23 35.23 35.23 35.23 35.23 35.23
10/20/2015 16:00 to 15:10 35.23 35.23 35.23 35.23 35.23 35.23
10/20/2015 15:00 to 14:10 35.23 35.23 35.24 35.24 35.24 35.24
10/20/2015 14:00 to 13:10 35.24 35.24 35.24 35.24 35.24 35.23
10/20/2015 13:00 to 12:10 35.24 35.24 35.24 35.24 35.24 35.24
10/20/2015 12:00 to 11:10 35.24 35.24 35.24 35.24 35.24 35.24
10/20/2015 11:00 to 10:10 35.24 35.24 35.24 35.24 35.24 35.24
10/20/2015 10:00 to 9:10 35.24 35.24 35.25 35.25 35.24 35.25
10/20/2015 09:00 to 8:10 35.25 35.25 35.25 35.25 35.25 35.25
10/20/2015 08:00 to 7:10 35.25 35.25 35.26 35.25 35.26 35.26
10/20/2015 07:00 to 6:10 35.26 35.25 35.26 35.26 35.26 35.26
10/20/2015 06:00 to 5:10 35.26 35.26 35.26 35.26 35.26 --
10/20/2015 05:00 to 4:10 35.26 35.27 35.26 35.27 35.26 35.26
10/20/2015 04:00 to 3:10 35.26 35.26 35.26 35.27 35.27 35.27
10/20/2015 03:00 to 2:10 35.27 35.27 35.27 35.27 35.28 35.28
10/20/2015 02:00 to 1:10 35.28 35.28 35.28 35.28 35.28 35.29
10/20/2015 01:00 to 0:10 35.30 35.29 35.29 35.30 35.30 35.30
10/20/2015 00:00 to 23:10 35.30 35.31 35.32 35.32 35.32 35.32
10/19/2015 23:00 to 22:10 35.33 35.32 35.33 35.33 35.33 35.33
10/19/2015 22:00 to 21:10 35.33 35.33 35.32 35.33 35.33 35.33
10/19/2015 21:00 to 20:10 35.33 35.33 35.33 35.32 35.32 35.33
10/19/2015 20:00 to 19:10 35.32 35.33 35.32 35.32 35.32 35.32
10/19/2015 19:00 to 18:10 35.33 35.33 35.33 35.33 35.33 35.33
10/19/2015 18:00 to 17:10 35.33 35.33 35.33 35.33 35.33 35.33
10/19/2015 17:00 to 16:10 35.33 35.33 35.33 35.33 35.33 35.33
10/19/2015 16:00 to 15:10 35.32 35.33 35.33 35.32 35.32 35.32
10/19/2015 15:00 to 14:10 35.32 35.32 35.32 35.33 35.32 35.33
10/19/2015 14:00 to 13:10 35.32 35.33 35.32 35.32 35.32 35.33
10/19/2015 13:00 to 12:10 35.33 35.33 35.33 35.33 35.33 35.33
10/19/2015 12:00 to 11:10 35.33 35.33 35.33 35.32 35.33 35.32
10/19/2015 11:00 to 10:10 35.33 35.33 35.33 35.33 35.33 35.33
10/19/2015 10:00 to 9:10 35.33 35.33 35.33 35.33 35.33 35.33
10/19/2015 09:00 to 8:10 35.33 35.33 35.33 35.33 35.33 35.33
10/19/2015 08:00 to 7:10 35.33 35.33 35.33 35.33 35.33 35.33
10/19/2015 07:00 to 6:10 35.33 35.33 35.33 35.33 35.33 35.33
10/19/2015 06:00 to 5:10 35.34 35.33 35.33 35.33 35.33 35.33
10/19/2015 05:00 to 4:10 35.33 35.33 35.33 35.33 35.33 35.33
10/19/2015 04:00 to 3:10 35.33 35.33 35.32 35.34 35.33 35.33
10/19/2015 03:00 to 2:10 35.33 34.77 34.76 34.78 34.92 35.03
10/19/2015 02:00 to 1:10 35.13 34.95 34.89 35.33 34.85 34.75
10/19/2015 01:00 to 0:10 34.70 34.77 34.77 34.91 34.88 35.17